createdAt,value
2023-04-05T00:09:29.001Z,4.13
2023-04-05T00:19:33.906Z,4.57
2023-04-05T00:29:36.202Z,4.73
2023-04-05T00:39:41.521Z,3.73
2023-04-05T00:49:43.662Z,4.13
2023-04-05T00:59:45.778Z,4.10
2023-04-05T01:09:57.393Z,3.80
2023-04-05T01:20:00.766Z,3.77
2023-04-05T01:30:10.742Z,4.20
2023-04-05T01:40:13.985Z,4.37
2023-04-05T01:50:16.854Z,4.67
2023-04-05T02:00:19.188Z,4.70
2023-04-05T02:10:24.498Z,4.73
2023-04-05T02:20:26.707Z,3.93
2023-04-05T02:30:29.652Z,4.63
2023-04-05T02:40:32.356Z,4.40
2023-04-05T02:50:34.755Z,4.27
2023-04-05T03:00:38.113Z,4.30
2023-04-05T03:10:44.953Z,4.40
2023-04-05T03:20:56.687Z,4.70
2023-04-05T03:31:00.612Z,4.17
2023-04-05T03:41:03.099Z,4.70
2023-04-05T03:51:06.156Z,4.50
2023-04-05T04:01:08.568Z,4.70
2023-04-05T04:11:11.709Z,4.80
2023-04-05T04:21:17.149Z,4.70
2023-04-05T04:31:33.938Z,5.50
2023-04-05T04:42:12.005Z,5.23
2023-04-05T04:52:29.500Z,5.60
2023-04-05T05:02:31.646Z,5.20
2023-04-05T05:12:34.060Z,4.53
2023-04-05T05:22:40.289Z,4.80
2023-04-05T05:32:43.546Z,5.17
2023-04-05T05:42:45.656Z,4.87
2023-04-05T05:52:47.778Z,4.97
2023-04-05T06:02:50.430Z,5.77
2023-04-05T06:12:52.949Z,5.30
2023-04-05T06:22:55.265Z,6.00
2023-04-05T06:32:57.631Z,5.60
2023-04-05T06:42:59.730Z,4.80
2023-04-05T06:53:06.112Z,4.27
2023-04-05T07:03:08.262Z,3.63
2023-04-05T07:13:11.011Z,3.73
2023-04-05T07:23:13.151Z,3.63
2023-04-05T07:33:16.344Z,3.70
2023-04-05T07:43:19.093Z,3.43
2023-04-05T07:53:21.261Z,2.93
2023-04-05T08:03:23.516Z,2.80
2023-04-05T08:13:25.689Z,2.90
2023-04-05T08:23:27.926Z,2.80
2023-04-05T08:33:31.197Z,2.60
2023-04-05T08:43:57.066Z,2.10
2023-04-05T08:53:59.894Z,3.23
2023-04-05T09:04:06.031Z,3.37
2023-04-05T09:14:09.679Z,3.97
2023-04-05T09:24:13.162Z,4.00
2023-04-05T09:34:20.972Z,3.40
2023-04-05T09:44:24.601Z,4.03
2023-04-05T09:54:28.476Z,3.30
2023-04-05T10:04:42.448Z,3.63
2023-04-05T10:14:44.881Z,3.83
2023-04-05T10:24:54.759Z,3.90
2023-04-05T10:35:07.943Z,3.87
2023-04-05T10:45:15.209Z,3.10
2023-04-05T10:55:18.311Z,3.40
2023-04-05T11:05:34.328Z,3.40
2023-04-05T11:15:36.731Z,2.93
2023-04-05T11:25:42.468Z,3.40
2023-04-05T11:36:00.846Z,3.20
2023-04-05T11:46:06.039Z,3.50
2023-04-05T11:56:10.282Z,2.85
2023-04-05T12:06:12.512Z,3.37
2023-04-05T12:16:15.246Z,3.67
2023-04-05T12:26:18.159Z,2.50
2023-04-05T12:36:20.464Z,2.53
2023-04-05T12:46:23.284Z,3.60
2023-04-05T12:56:29.267Z,2.73
2023-04-05T13:06:32.081Z,2.87
2023-04-05T13:16:34.397Z,3.17
2023-04-05T13:26:36.788Z,3.00
2023-04-05T13:36:39.066Z,3.28
2023-04-05T13:46:41.641Z,2.30
2023-04-05T13:56:43.792Z,2.60
2023-04-05T14:06:46.670Z,2.57
2023-04-05T14:16:48.970Z,2.87
2023-04-05T14:26:51.225Z,2.70
2023-04-05T14:36:53.702Z,2.83
2023-04-05T14:46:56.435Z,2.67
2023-04-05T14:56:58.660Z,2.93
2023-04-05T15:07:03.007Z,2.87
2023-04-05T15:17:05.278Z,2.43
2023-04-05T15:27:07.933Z,2.50
2023-04-05T15:37:10.560Z,2.70
2023-04-05T15:47:13.202Z,2.90
2023-04-05T15:57:19.641Z,3.08
2023-04-05T16:07:22.102Z,2.50
2023-04-05T16:17:25.722Z,2.65
2023-04-05T16:27:30.630Z,2.57
2023-04-05T16:37:32.700Z,2.93
2023-04-05T16:47:34.842Z,3.20
2023-04-05T16:57:37.131Z,2.70
2023-04-05T17:07:41.626Z,3.37
2023-04-05T17:17:44.085Z,2.60
2023-04-05T17:27:46.516Z,2.88
2023-04-05T17:37:49.062Z,2.90
2023-04-05T17:47:51.349Z,4.30
2023-04-05T17:57:53.681Z,3.27
2023-04-05T18:07:56.273Z,3.00
2023-04-05T18:17:58.870Z,3.23
2023-04-05T18:28:04.651Z,3.38
2023-04-05T18:38:11.612Z,3.87
2023-04-05T18:48:14.127Z,4.13
2023-04-05T18:58:16.369Z,3.65
2023-04-05T19:08:19.678Z,4.20
2023-04-05T19:18:25.665Z,4.07
2023-04-05T19:28:28.014Z,4.07
2023-04-05T19:38:30.493Z,3.90
2023-04-05T19:48:38.001Z,4.10
2023-04-05T19:58:42.177Z,4.30
2023-04-05T20:08:47.687Z,4.93
2023-04-05T20:18:50.331Z,5.30
2023-04-05T20:28:53.990Z,5.87
2023-04-05T20:38:56.216Z,6.90
2023-04-05T20:48:58.845Z,8.83
2023-04-05T20:59:01.365Z,6.57
2023-04-05T21:09:03.837Z,8.00
2023-04-05T21:19:06.212Z,7.87
2023-04-05T21:29:08.881Z,10.73
2023-04-05T21:39:11.420Z,11.17
2023-04-05T21:49:13.982Z,10.20
2023-04-05T21:59:16.509Z,9.93
2023-04-05T22:09:18.935Z,9.90
2023-04-05T22:19:21.993Z,8.47
2023-04-05T22:29:24.374Z,7.00
2023-04-05T22:39:27.517Z,6.53
2023-04-05T22:49:29.986Z,6.83
2023-04-05T22:59:32.366Z,5.80
2023-04-05T23:09:34.648Z,6.00
2023-04-05T23:19:37.293Z,5.93
2023-04-05T23:29:39.394Z,6.40
2023-04-05T23:39:41.838Z,6.10
2023-04-05T23:49:45.260Z,6.57
2023-04-05T23:59:47.374Z,5.90
